Time;durP1;ratioP1;P1;durP2;ratioP2;P2;SDS_P1;SDS_P2;PMS_P1;PMS_P2;Temp;Humidity;BMP_temperature;BMP_pressure;BME280_temperature;BME280_humidity;BME280_pressure;Samples;Min_cycle;Max_cycle;Signal;HPM_P1;HPM_P2
2021/04/09 00:00:06;;;;;;;9.87;6.17;;;;;;;;;;5023724;28;20060;-57
2021/04/09 00:02:58;;;;;;;;;;;;;;;;;;;;;
2021/04/09 00:05:51;;;;;;;7.80;5.83;;;;;;;;;;5056689;28;20108;-54
2021/04/09 00:08:17;;;;;;;7.83;5.97;;;;;;;;;;5060113;28;20025;-57
2021/04/09 00:13:45;;;;;;;10.63;6.00;;;;;;;;;;5059573;28;20486;-55
2021/04/09 00:19:36;;;;;;;16.83;6.90;;;;;;;;;;5049467;28;20043;-57
2021/04/09 00:22:17;;;;;;;7.13;6.07;;;;;;;;;;5060780;28;20108;-57
2021/04/09 00:25:22;;;;;;;8.90;6.40;;;;;;;;;;5060898;28;20029;-56
2021/04/09 00:28:08;;;;;;;8.57;6.33;;;;;;;;;;5061024;28;20029;-56
2021/04/09 00:30:47;;;;;;;;;;;;;;;;;;;;;
2021/04/09 00:33:43;;;;;;;11.80;6.87;;;;;;;;;;5044470;28;20108;-55
2021/04/09 00:40:12;;;;;;;9.27;6.93;;;;;;;;;;5039372;28;20041;-55
2021/04/09 00:42:53;;;;;;;15.17;6.53;;;;;;;;;;5039968;28;20083;-57
2021/04/09 00:45:31;;;;;;;9.68;7.85;;;;;;;;;;5017260;28;20107;-56
2021/04/09 00:48:09;;;;;;;10.83;7.43;;;;;;;;;;5017625;28;20091;-55
2021/04/09 00:53:34;;;;;;;13.38;6.93;;;;;;;;;;5018166;28;20044;-55
2021/04/09 00:56:45;;;;;;;11.43;5.70;;;;;;;;;;5001927;28;20444;-54
2021/04/09 00:59:28;;;;;;;8.68;6.13;;;;;;;;;;5011543;28;20066;-57
2021/04/09 01:01:54;;;;;;;13.30;7.17;;;;;;;;;;5017931;28;20113;-54
2021/04/09 01:07:50;;;;;;;9.27;5.93;;;;;;;;;;4996164;28;20045;-57
2021/04/09 01:10:26;;;;;;;13.40;7.30;;;;;;;;;;5012842;28;20417;-57
2021/04/09 01:12:52;;;;;;;8.63;6.43;;;;;;;;;;5016040;28;20555;-56
2021/04/09 01:15:41;;;;;;;;;;;;;;;;;;;;;
2021/04/09 01:18:33;;;;;;;12.93;6.70;;;;;;;;;;5036080;28;20128;-56
2021/04/09 01:21:32;;;;;;;14.33;7.40;;;;;;;;;;5021901;28;20059;-55
2021/04/09 01:24:24;;;;;;;9.90;5.90;;;;;;;;;;5039435;28;20026;-55
2021/04/09 01:27:12;;;;;;;9.37;6.77;;;;;;;;;;5022468;28;20072;-54
2021/04/09 01:29:57;;;;;;;10.43;7.13;;;;;;;;;;5021953;28;20025;-56
2021/04/09 01:32:35;;;;;;;7.50;6.33;;;;;;;;;;5021186;28;20083;-55
2021/04/09 01:38:27;;;;;;;8.97;6.10;;;;;;;;;;5055076;28;20395;-56
2021/04/09 01:43:58;;;;;;;7.03;5.50;;;;;;;;;;5048237;28;20037;-56
2021/04/09 01:46:31;;;;;;;8.77;7.30;;;;;;;;;;5059014;28;20036;-57
2021/04/09 01:49:30;;;;;;;8.97;6.40;;;;;;;;;;5058819;28;20033;-57
2021/04/09 01:52:02;;;;;;;7.37;5.93;;;;;;;;;;5009530;28;20075;-56
2021/04/09 01:54:38;;;;;;;9.13;7.33;;;;;;;;;;5059471;28;20025;-55
2021/04/09 01:57:29;;;;;;;7.50;6.33;;;;;;;;;;5043016;28;20033;-55
2021/04/09 02:05:48;;;;;;;7.27;5.20;;;;;;;;;;5017281;28;20034;-56
2021/04/09 02:08:45;;;;;;;8.27;6.57;;;;;;;;;;5018135;28;20494;-57
2021/04/09 02:11:18;;;;;;;7.03;5.17;;;;;;;;;;5018420;28;20518;-56
2021/04/09 02:13:50;;;;;;;8.13;6.23;;;;;;;;;;5017700;28;20045;-53
2021/04/09 02:16:30;;;;;;;10.70;5.77;;;;;;;;;;5000638;28;20041;-54
2021/04/09 02:22:23;;;;;;;10.40;5.35;;;;;;;;;;4995161;28;20038;-56
2021/04/09 02:25:27;;;;;;;5.40;4.60;;;;;;;;;;5002416;28;20460;-54
2021/04/09 02:28:02;;;;;;;13.00;5.77;;;;;;;;;;4999066;28;20045;-56
2021/04/09 02:30:34;;;;;;;6.77;5.23;;;;;;;;;;5034624;28;20124;-56
2021/04/09 02:33:17;;;;;;;8.47;5.83;;;;;;;;;;5040316;28;20416;-55
2021/04/09 02:35:55;;;;;;;9.07;5.67;;;;;;;;;;5058704;28;20109;-57
2021/04/09 02:38:43;;;;;;;;;;;;;;;;;;;;;
2021/04/09 02:41:26;;;;;;;8.17;5.77;;;;;;;;;;5058914;28;20119;-57
2021/04/09 02:44:02;;;;;;;6.70;5.13;;;;;;;;;;5059357;28;20032;-53
2021/04/09 02:46:47;;;;;;;6.53;4.90;;;;;;;;;;5025276;28;20056;-56
2021/04/09 02:49:18;;;;;;;8.47;5.20;;;;;;;;;;5024549;28;20510;-56
2021/04/09 02:51:57;;;;;;;8.48;4.70;;;;;;;;;;5058446;28;20025;-54
2021/04/09 02:54:41;;;;;;;5.10;4.20;;;;;;;;;;5040604;28;20029;-52
2021/04/09 02:57:11;;;;;;;9.73;6.00;;;;;;;;;;5040456;28;20021;-56
2021/04/09 02:59:46;;;;;;;6.83;5.57;;;;;;;;;;5057716;28;20032;-56
2021/04/09 03:02:21;;;;;;;6.87;4.67;;;;;;;;;;5057609;28;20033;-54
2021/04/09 03:05:09;;;;;;;9.37;5.70;;;;;;;;;;5059038;28;20081;-56
2021/04/09 03:08:04;;;;;;;;;;;;;;;;;;;;;
2021/04/09 03:13:32;;;;;;;9.20;4.30;;;;;;;;;;5052256;28;20037;-56
2021/04/09 03:16:18;;;;;;;6.93;4.50;;;;;;;;;;5039646;28;20033;-56
2021/04/09 03:19:15;;;;;;;9.63;5.20;;;;;;;;;;5039808;28;20033;-55
2021/04/09 03:21:59;;;;;;;6.70;4.57;;;;;;;;;;5058118;28;20035;-56
2021/04/09 03:24:42;;;;;;;6.00;4.53;;;;;;;;;;5057415;28;20036;-57
2021/04/09 03:27:26;;;;;;;4.40;3.50;;;;;;;;;;5040186;28;20131;-53
2021/04/09 03:33:12;;;;;;;7.23;4.27;;;;;;;;;;5050691;28;20480;-53
2021/04/09 03:36:02;;;;;;;7.30;4.23;;;;;;;;;;5055585;28;20068;-57
2021/04/09 03:38:30;;;;;;;6.00;4.05;;;;;;;;;;5039703;28;20112;-55
2021/04/09 03:44:04;;;;;;;6.07;3.07;;;;;;;;;;5057731;28;20072;-57
2021/04/09 03:46:46;;;;;;;;;;;;;;;;;;;;;
2021/04/09 03:49:13;;;;;;;7.13;4.27;;;;;;;;;;5054321;28;20113;-56
2021/04/09 03:51:51;;;;;;;10.03;5.17;;;;;;;;;;5057783;28;20081;-56
2021/04/09 03:54:41;;;;;;;9.23;4.53;;;;;;;;;;5057356;28;20051;-56
2021/04/09 03:57:26;;;;;;;;;;;;;;;;;;;;;
2021/04/09 04:00:18;;;;;;;7.77;4.10;;;;;;;;;;5036960;28;20143;-56
2021/04/09 04:03:23;;;;;;;8.47;3.80;;;;;;;;;;5056135;28;20040;-55
2021/04/09 04:06:01;;;;;;;5.17;3.20;;;;;;;;;;4976513;28;20034;-54
2021/04/09 04:08:33;;;;;;;7.60;3.47;;;;;;;;;;4976608;28;20033;-53
2021/04/09 04:11:06;;;;;;;5.40;3.83;;;;;;;;;;4978668;28;20066;-56
2021/04/09 04:14:02;;;;;;;4.87;3.40;;;;;;;;;;4975682;28;20050;-57
2021/04/09 04:16:48;;;;;;;4.50;3.60;;;;;;;;;;5010387;28;20033;-57
2021/04/09 04:19:24;;;;;;;5.43;3.93;;;;;;;;;;5056457;28;20451;-52
2021/04/09 04:22:30;;;;;;;5.13;4.10;;;;;;;;;;5056406;28;20029;-55
2021/04/09 04:25:47;;;;;;;3.93;3.53;;;;;;;;;;4995812;28;20071;-55
2021/04/09 04:28:31;;;;;;;5.37;3.80;;;;;;;;;;5055546;28;20044;-57
2021/04/09 04:31:44;;;;;;;6.90;3.20;;;;;;;;;;5056514;28;20025;-56
2021/04/09 04:34:28;;;;;;;5.53;3.63;;;;;;;;;;5038014;28;20451;-56
2021/04/09 04:37:07;;;;;;;5.87;4.57;;;;;;;;;;5038170;28;20079;-56
2021/04/09 04:39:48;;;;;;;9.77;5.13;;;;;;;;;;5056556;28;20108;-54
2021/04/09 04:42:22;;;;;;;6.50;4.73;;;;;;;;;;5056092;28;20033;-56
2021/04/09 04:45:19;;;;;;;5.90;4.47;;;;;;;;;;5055873;28;20103;-55
2021/04/09 04:48:04;;;;;;;;;;;;;;;;;;;;;
2021/04/09 04:53:20;;;;;;;8.77;5.17;;;;;;;;;;5056072;28;20044;-56
2021/04/09 04:55:53;;;;;;;8.90;5.20;;;;;;;;;;5033488;28;20561;-55
2021/04/09 04:58:28;;;;;;;8.77;5.40;;;;;;;;;;5033801;28;20034;-56
2021/04/09 05:01:05;;;;;;;6.33;4.37;;;;;;;;;;5001731;28;20479;-56
2021/04/09 05:03:47;;;;;;;6.00;4.57;;;;;;;;;;5026100;28;20422;-55
2021/04/09 05:06:25;;;;;;;7.53;5.43;;;;;;;;;;5033989;28;20037;-56
2021/04/09 05:09:08;;;;;;;4.27;3.50;;;;;;;;;;5017564;28;20467;-55
2021/04/09 05:15:20;;;;;;;;;;;;;;;;;;;;;
2021/04/09 05:21:11;;;;;;;12.97;7.50;;;;;;;;;;5023314;28;20033;-56
2021/04/09 05:23:53;;;;;;;12.20;6.53;;;;;;;;;;5017374;28;20120;-57
2021/04/09 05:27:02;;;;;;;11.50;6.50;;;;;;;;;;5040246;28;20037;-55
2021/04/09 05:30:03;;;;;;;;;;;;;;;;;;;;;
2021/04/09 05:32:46;;;;;;;9.15;6.75;;;;;;;;;;5055491;28;20474;-56
2021/04/09 05:35:39;;;;;;;9.40;6.57;;;;;;;;;;5034849;28;20132;-57
2021/04/09 05:38:39;;;;;;;9.63;6.35;;;;;;;;;;5033781;28;20521;-55
2021/04/09 05:41:15;;;;;;;;;;;;;;;;;;;;;
2021/04/09 05:43:48;;;;;;;6.70;5.55;;;;;;;;;;5052600;28;20096;-57
2021/04/09 05:49:30;;;;;;;7.83;5.67;;;;;;;;;;5055300;28;20029;-57
2021/04/09 05:52:12;;;;;;;6.18;5.38;;;;;;;;;;5054730;28;20264;-58
2021/04/09 05:55:02;;;;;;;7.65;5.50;;;;;;;;;;5052196;28;20389;-58
2021/04/09 05:57:28;;;;;;;9.05;5.55;;;;;;;;;;5036821;28;20037;-57
2021/04/09 06:00:21;;;;;;;;;;;;;;;;;;;;;
2021/04/09 06:06:24;;;;;;;11.43;5.72;;;;;;;;;;4973976;28;20030;-57
2021/04/09 06:09:11;;;;;;;13.30;5.78;;;;;;;;;;4974439;28;20027;-56
2021/04/09 06:11:58;;;;;;;9.93;5.15;;;;;;;;;;5054777;28;20055;-56
2021/04/09 06:14:33;;;;;;;8.27;5.38;;;;;;;;;;5036977;28;20048;-56
2021/04/09 06:17:21;;;;;;;7.32;4.95;;;;;;;;;;5054819;28;20028;-54
2021/04/09 06:23:27;;;;;;;8.57;5.93;;;;;;;;;;5049265;28;20442;-56
2021/04/09 06:26:19;;;;;;;6.70;4.22;;;;;;;;;;5005596;28;20116;-57
2021/04/09 06:28:57;;;;;;;12.45;4.32;;;;;;;;;;5051128;28;20065;-54
2021/04/09 06:34:47;;;;;;;8.27;5.78;;;;;;;;;;5001242;28;20116;-57
2021/04/09 06:37:57;;;;;;;7.55;5.35;;;;;;;;;;5010849;28;20561;-56
2021/04/09 06:40:39;;;;;;;9.30;5.47;;;;;;;;;;4992343;28;20116;-57
2021/04/09 06:43:15;;;;;;;9.95;5.45;;;;;;;;;;4960969;28;20038;-54
2021/04/09 06:45:46;;;;;;;9.52;6.28;;;;;;;;;;4975184;28;20606;-57
2021/04/09 06:48:27;;;;;;;15.68;6.22;;;;;;;;;;4992387;28;20393;-57
2021/04/09 06:51:15;;;;;;;9.30;5.63;;;;;;;;;;5026173;28;20042;-56
2021/04/09 06:53:47;;;;;;;9.60;5.72;;;;;;;;;;5012589;28;20503;-55
2021/04/09 06:59:17;;;;;;;5.28;4.78;;;;;;;;;;5030922;28;20034;-56
2021/04/09 07:01:58;;;;;;;8.10;5.30;;;;;;;;;;5031985;28;20399;-56
2021/04/09 07:08:08;;;;;;;8.13;4.95;;;;;;;;;;5025250;28;20040;-57
2021/04/09 07:10:35;;;;;;;9.50;5.05;;;;;;;;;;5009564;28;20052;-56
2021/04/09 07:13:29;;;;;;;10.60;6.80;;;;;;;;;;5036012;28;20025;-56
2021/04/09 07:16:22;;;;;;;7.25;5.57;;;;;;;;;;5036045;28;20412;-57
2021/04/09 07:19:05;;;;;;;;;;;;;;;;;;;;;
2021/04/09 07:21:38;;;;;;;6.32;4.57;;;;;;;;;;5027035;28;20116;-57
2021/04/09 07:24:23;;;;;;;9.65;4.53;;;;;;;;;;5034335;28;20486;-54
2021/04/09 07:27:10;;;;;;;6.22;4.38;;;;;;;;;;5036702;28;20068;-58
2021/04/09 07:32:43;;;;;;;9.35;5.38;;;;;;;;;;5011112;28;20199;-57
2021/04/09 07:35:14;;;;;;;9.15;4.82;;;;;;;;;;5039707;28;20048;-58
2021/04/09 07:38:19;;;;;;;5.85;4.55;;;;;;;;;;5055088;28;20055;-57
2021/04/09 07:44:20;;;;;;;6.13;4.07;;;;;;;;;;4959287;28;20035;-57
2021/04/09 07:47:15;;;;;;;5.72;3.75;;;;;;;;;;5051269;28;20033;-58
2021/04/09 07:49:44;;;;;;;6.68;3.75;;;;;;;;;;5031548;28;20033;-57
2021/04/09 07:52:28;;;;;;;7.30;4.22;;;;;;;;;;5054823;28;20343;-57
2021/04/09 07:55:31;;;;;;;6.90;4.20;;;;;;;;;;5054618;28;20047;-57
2021/04/09 07:58:23;;;;;;;9.82;3.58;;;;;;;;;;5053055;28;20040;-58
2021/04/09 08:01:02;;;;;;;5.93;3.50;;;;;;;;;;5024028;28;20036;-56
2021/04/09 08:03:55;;;;;;;5.72;3.67;;;;;;;;;;5053595;28;20116;-57
2021/04/09 08:06:53;;;;;;;5.97;3.90;;;;;;;;;;5035393;28;20048;-58
2021/04/09 08:09:30;;;;;;;;;;;;;;;;;;;;;
2021/04/09 08:12:08;;;;;;;5.22;3.63;;;;;;;;;;5049046;28;20112;-58
2021/04/09 08:15:09;;;;;;;10.90;4.05;;;;;;;;;;5053128;28;20033;-56
2021/04/09 08:17:38;;;;;;;;;;;;;;;;;;5033093;28;20087;-57
2021/04/09 08:23:07;;;;;;;4.80;3.20;;;;;;;;;;5056973;28;20510;-58
2021/04/09 08:25:40;;;;;;;6.68;3.20;;;;;;;;;;5056480;28;20017;-57
2021/04/09 08:28:12;;;;;;;7.38;3.83;;;;;;;;;;5057376;28;20037;-58
2021/04/09 08:30:40;;;;;;;7.20;3.35;;;;;;;;;;5056650;28;20025;-58
2021/04/09 08:33:38;;;;;;;6.95;3.47;;;;;;;;;;5038443;28;20041;-57
2021/04/09 08:36:09;;;;;;;5.63;3.60;;;;;;;;;;5055949;28;20432;-58
2021/04/09 08:38:45;;;;;;;;;;;;;;;;;;;;;
2021/04/09 08:47:11;;;;;;;6.13;3.60;;;;;;;;;;5042531;28;20037;-58
2021/04/09 08:50:03;;;;;;;13.20;3.53;;;;;;;;;;5055791;28;20025;-58
2021/04/09 08:53:00;;;;;;;4.43;3.10;;;;;;;;;;5051928;28;20076;-56
2021/04/09 08:55:46;;;;;;;5.53;3.35;;;;;;;;;;5054659;28;20471;-58
2021/04/09 08:58:16;;;;;;;5.50;3.53;;;;;;;;;;5055878;28;20090;-57
2021/04/09 09:01:06;;;;;;;4.65;2.80;;;;;;;;;;5054627;28;20132;-59
2021/04/09 09:03:55;;;;;;;6.22;3.13;;;;;;;;;;5055196;28;20323;-60
2021/04/09 09:06:43;;;;;;;4.30;3.15;;;;;;;;;;5055858;28;20357;-58
2021/04/09 09:09:12;;;;;;;5.03;2.53;;;;;;;;;;5037308;28;20052;-59
2021/04/09 09:12:18;;;;;;;4.32;2.75;;;;;;;;;;5037155;28;20020;-59
2021/04/09 09:17:54;;;;;;;3.60;2.53;;;;;;;;;;5055312;28;20037;-59
2021/04/09 09:23:25;;;;;;;3.65;2.05;;;;;;;;;;5055037;28;20118;-58
2021/04/09 09:25:54;;;;;;;4.55;1.95;;;;;;;;;;5054892;28;20036;-59
2021/04/09 09:28:38;;;;;;;4.05;2.22;;;;;;;;;;5036819;28;20036;-59
2021/04/09 09:31:27;;;;;;;2.88;1.60;;;;;;;;;;5054736;28;20025;-57
2021/04/09 09:34:11;;;;;;;2.65;1.55;;;;;;;;;;5035761;28;20118;-58
2021/04/09 09:37:06;;;;;;;3.90;2.35;;;;;;;;;;5036195;28;20060;-59
2021/04/09 09:39:42;;;;;;;5.03;2.38;;;;;;;;;;5055588;28;20127;-59
2021/04/09 09:42:21;;;;;;;2.67;1.88;;;;;;;;;;5055251;28;20100;-59
2021/04/09 09:44:50;;;;;;;4.68;3.13;;;;;;;;;;5036144;28;20017;-59
2021/04/09 09:47:32;;;;;;;5.00;1.80;;;;;;;;;;5055080;28;20410;-59
2021/04/09 09:50:05;;;;;;;2.83;1.80;;;;;;;;;;5036725;28;20024;-58
2021/04/09 09:52:50;;;;;;;3.25;1.85;;;;;;;;;;5036980;28;20387;-59
2021/04/09 09:55:34;;;;;;;4.05;1.75;;;;;;;;;;5054082;28;20029;-59
2021/04/09 09:58:12;;;;;;;2.40;1.60;;;;;;;;;;5054183;28;20029;-59
2021/04/09 10:00:56;;;;;;;5.97;2.10;;;;;;;;;;5054774;28;20413;-59
2021/04/09 10:03:32;;;;;;;4.03;2.10;;;;;;;;;;5054344;28;20035;-59
2021/04/09 10:06:12;;;;;;;;;;;;;;;;;;;;;
2021/04/09 10:08:48;;;;;;;1.75;1.25;;;;;;;;;;5034379;28;20047;-59
2021/04/09 10:11:16;;;;;;;3.42;1.73;;;;;;;;;;5036534;28;20471;-59
2021/04/09 10:13:55;;;;;;;3.17;1.45;;;;;;;;;;5019592;28;20414;-59
2021/04/09 10:16:35;;;;;;;2.63;1.25;;;;;;;;;;5035850;28;20433;-59
2021/04/09 10:19:11;;;;;;;3.92;1.55;;;;;;;;;;5036265;28;20463;-58
2021/04/09 10:21:40;;;;;;;3.80;2.13;;;;;;;;;;5053357;28;20025;-58
2021/04/09 10:24:06;;;;;;;5.68;2.13;;;;;;;;;;5052780;28;20386;-60
2021/04/09 10:26:44;;;;;;;3.15;1.77;;;;;;;;;;5053756;28;20029;-59
2021/04/09 10:29:41;;;;;;;3.05;1.17;;;;;;;;;;5054305;28;20071;-59
2021/04/09 10:32:20;;;;;;;3.35;1.88;;;;;;;;;;5053662;28;20021;-57
2021/04/09 10:34:52;;;;;;;3.75;1.27;;;;;;;;;;5053063;28;20379;-59
2021/04/09 10:37:32;;;;;;;3.50;1.77;;;;;;;;;;5053074;28;20178;-59
2021/04/09 10:40:00;;;;;;;4.20;2.10;;;;;;;;;;5035360;28;20036;-59
2021/04/09 10:42:29;;;;;;;3.88;1.67;;;;;;;;;;5035433;28;20060;-59
2021/04/09 10:44:59;;;;;;;7.35;1.85;;;;;;;;;;5052173;28;20028;-59
2021/04/09 10:47:30;;;;;;;5.35;1.98;;;;;;;;;;5053196;28;20031;-59
2021/04/09 10:50:00;;;;;;;2.58;1.95;;;;;;;;;;5034787;28;20044;-59
2021/04/09 10:52:32;;;;;;;3.45;2.00;;;;;;;;;;5051237;28;20037;-59
2021/04/09 10:55:02;;;;;;;2.75;1.58;;;;;;;;;;5053223;28;20028;-59
2021/04/09 10:57:37;;;;;;;4.03;2.30;;;;;;;;;;5053541;28;20025;-59
2021/04/09 11:00:07;;;;;;;6.72;1.55;;;;;;;;;;5053525;28;20031;-59
2021/04/09 11:02:36;;;;;;;3.80;1.85;;;;;;;;;;5018700;28;20067;-59
2021/04/09 11:05:05;;;;;;;6.47;2.28;;;;;;;;;;5052499;28;20033;-59
2021/04/09 11:07:55;;;;;;;2.65;1.83;;;;;;;;;;5052934;28;20143;-59
2021/04/09 11:10:37;;;;;;;3.10;2.23;;;;;;;;;;5052956;28;20467;-59
2021/04/09 11:13:11;;;;;;;6.32;2.72;;;;;;;;;;5052662;28;20064;-59
2021/04/09 11:15:43;;;;;;;2.90;1.90;;;;;;;;;;5053099;28;20024;-60
2021/04/09 11:18:10;;;;;;;2.53;1.63;;;;;;;;;;5034802;28;20505;-59
2021/04/09 11:20:40;;;;;;;2.58;1.67;;;;;;;;;;5053715;28;20021;-59
2021/04/09 11:23:15;;;;;;;2.97;1.45;;;;;;;;;;5052872;28;20025;-59
2021/04/09 11:25:50;;;;;;;2.53;1.50;;;;;;;;;;5053780;28;20032;-59
2021/04/09 11:28:28;;;;;;;2.97;1.60;;;;;;;;;;5053272;28;20021;-59
2021/04/09 11:30:58;;;;;;;3.00;2.08;;;;;;;;;;5035442;28;20021;-59
2021/04/09 11:33:31;;;;;;;3.88;1.95;;;;;;;;;;5035688;28;20045;-59
2021/04/09 11:36:16;;;;;;;3.60;1.65;;;;;;;;;;5034558;28;20041;-59
2021/04/09 11:38:48;;;;;;;3.33;1.48;;;;;;;;;;5035653;28;20033;-58
2021/04/09 11:41:37;;;;;;;3.88;2.22;;;;;;;;;;5034832;28;20120;-58
2021/04/09 11:44:22;;;;;;;5.05;1.63;;;;;;;;;;5036256;28;20021;-57
2021/04/09 11:46:52;;;;;;;4.43;2.08;;;;;;;;;;5034891;28;20021;-57
2021/04/09 11:49:29;;;;;;;6.43;1.90;;;;;;;;;;5052330;28;20100;-58
2021/04/09 11:52:07;;;;;;;4.28;2.00;;;;;;;;;;5035190;28;20108;-58
2021/04/09 11:54:40;;;;;;;3.03;1.70;;;;;;;;;;5052488;28;20098;-57
2021/04/09 11:57:19;;;;;;;3.28;2.10;;;;;;;;;;5038059;28;20029;-58
2021/04/09 11:59:46;;;;;;;4.38;1.85;;;;;;;;;;5038562;28;20538;-58
2021/04/09 12:02:19;;;;;;;4.30;1.70;;;;;;;;;;5056827;28;20021;-58
2021/04/09 12:04:45;;;;;;;3.35;2.00;;;;;;;;;;5035718;28;20073;-58
2021/04/09 12:07:38;;;;;;;3.47;1.58;;;;;;;;;;5022077;28;20040;-57
2021/04/09 12:10:05;;;;;;;4.28;1.80;;;;;;;;;;5055531;28;20431;-59
2021/04/09 12:12:34;;;;;;;3.70;1.77;;;;;;;;;;5038350;28;20045;-58
2021/04/09 12:15:28;;;;;;;4.45;1.65;;;;;;;;;;5056525;28;20033;-57
2021/04/09 12:17:55;;;;;;;3.97;1.75;;;;;;;;;;5056826;28;20091;-58
2021/04/09 12:20:28;;;;;;;3.35;1.95;;;;;;;;;;5038351;28;20482;-58
2021/04/09 12:22:58;;;;;;;3.70;1.70;;;;;;;;;;5056440;28;20051;-58
2021/04/09 12:25:24;;;;;;;2.20;0.95;;;;;;;;;;5037741;28;20070;-57
2021/04/09 12:27:51;;;;;;;2.50;1.20;;;;;;;;;;5038443;28;20025;-58
2021/04/09 12:30:18;;;;;;;3.88;1.92;;;;;;;;;;5037632;28;20036;-58
2021/04/09 12:32:46;;;;;;;3.20;1.38;;;;;;;;;;5021930;28;20502;-58
2021/04/09 12:35:13;;;;;;;1.70;1.02;;;;;;;;;;5055648;28;20025;-58
2021/04/09 12:37:44;;;;;;;5.72;1.95;;;;;;;;;;5055430;28;20049;-58
2021/04/09 12:40:11;;;;;;;2.03;0.80;;;;;;;;;;5056248;28;20032;-58
2021/04/09 12:42:37;;;;;;;2.83;1.50;;;;;;;;;;5055564;28;20404;-58
2021/04/09 12:45:04;;;;;;;2.33;0.85;;;;;;;;;;5056073;28;20021;-58
2021/04/09 12:47:30;;;;;;;4.18;1.40;;;;;;;;;;5021443;28;20025;-58
2021/04/09 12:50:04;;;;;;;3.45;1.40;;;;;;;;;;5055582;28;20451;-58
2021/04/09 12:52:31;;;;;;;2.05;1.00;;;;;;;;;;5055211;28;20037;-59
2021/04/09 12:54:58;;;;;;;5.22;1.55;;;;;;;;;;5056036;28;20462;-59
2021/04/09 12:57:24;;;;;;;1.73;1.05;;;;;;;;;;5055737;28;20029;-58
2021/04/09 12:59:52;;;;;;;1.52;0.90;;;;;;;;;;5055123;28;20024;-59
2021/04/09 13:02:19;;;;;;;4.38;1.73;;;;;;;;;;5055213;28;20472;-58
2021/04/09 13:04:45;;;;;;;3.17;1.85;;;;;;;;;;5054866;28;20112;-59
2021/04/09 13:07:11;;;;;;;2.50;1.25;;;;;;;;;;5036014;28;20045;-58
2021/04/09 13:09:37;;;;;;;4.40;1.45;;;;;;;;;;5037589;28;20028;-59
2021/04/09 13:12:03;;;;;;;4.45;1.20;;;;;;;;;;5037585;28;20036;-59
2021/04/09 13:14:32;;;;;;;2.50;1.40;;;;;;;;;;5021362;28;20398;-59
2021/04/09 13:16:58;;;;;;;2.95;0.95;;;;;;;;;;5055127;28;20067;-58
2021/04/09 13:19:24;;;;;;;3.38;1.17;;;;;;;;;;5054964;28;20367;-58
2021/04/09 13:21:50;;;;;;;1.95;1.00;;;;;;;;;;5054832;28;20111;-59
2021/04/09 13:24:16;;;;;;;1.98;1.13;;;;;;;;;;5055087;28;20040;-58
2021/04/09 13:26:44;;;;;;;2.63;1.23;;;;;;;;;;5054581;28;20035;-58
2021/04/09 13:29:17;;;;;;;2.45;0.93;;;;;;;;;;5036480;28;20029;-59
2021/04/09 13:31:44;;;;;;;2.47;1.05;;;;;;;;;;5054491;28;20408;-58
2021/04/09 13:34:16;;;;;;;2.80;1.23;;;;;;;;;;5054838;28;20033;-58
2021/04/09 13:36:42;;;;;;;3.55;1.20;;;;;;;;;;5054521;28;20052;-58
2021/04/09 13:39:08;;;;;;;1.83;0.98;;;;;;;;;;5020284;28;20386;-58
2021/04/09 13:41:34;;;;;;;3.28;1.35;;;;;;;;;;5037004;28;20454;-58
2021/04/09 13:44:00;;;;;;;2.17;1.05;;;;;;;;;;5054481;28;20431;-59
2021/04/09 13:46:27;;;;;;;3.00;1.05;;;;;;;;;;5020414;28;20079;-59
2021/04/09 13:48:53;;;;;;;4.35;1.23;;;;;;;;;;5036498;28;20025;-59
2021/04/09 13:51:20;;;;;;;2.08;0.93;;;;;;;;;;5035997;28;20379;-59
2021/04/09 13:53:46;;;;;;;2.95;1.10;;;;;;;;;;5020965;28;20067;-59
2021/04/09 13:56:12;;;;;;;2.42;0.80;;;;;;;;;;5036361;28;20029;-59
2021/04/09 13:58:39;;;;;;;1.23;0.63;;;;;;;;;;5035938;28;20512;-59
2021/04/09 14:01:05;;;;;;;3.03;1.33;;;;;;;;;;5054321;28;20029;-59
2021/04/09 14:03:31;;;;;;;3.53;1.35;;;;;;;;;;5036369;28;20471;-59
2021/04/09 14:06:00;;;;;;;2.38;1.00;;;;;;;;;;5036197;28;20064;-59
2021/04/09 14:08:26;;;;;;;3.33;1.27;;;;;;;;;;5036128;28;20025;-59
2021/04/09 14:10:52;;;;;;;1.73;1.00;;;;;;;;;;5053032;28;20037;-59
2021/04/09 14:13:21;;;;;;;2.58;1.20;;;;;;;;;;5020349;28;20033;-59
2021/04/09 14:15:47;;;;;;;2.67;1.40;;;;;;;;;;5053704;28;20116;-59
2021/04/09 14:18:13;;;;;;;7.82;3.28;;;;;;;;;;5036560;28;20112;-59
2021/04/09 14:20:39;;;;;;;5.43;2.35;;;;;;;;;;5036251;28;20459;-59
2021/04/09 14:23:05;;;;;;;2.50;1.13;;;;;;;;;;5054557;28;20028;-59
2021/04/09 14:25:31;;;;;;;1.70;1.00;;;;;;;;;;5053690;28;20463;-59
2021/04/09 14:27:57;;;;;;;1.88;1.02;;;;;;;;;;5036244;28;20418;-59
2021/04/09 14:30:24;;;;;;;3.67;0.90;;;;;;;;;;5036052;28;20462;-59
2021/04/09 14:32:53;;;;;;;10.30;7.75;;;;;;;;;;5054001;28;20459;-59
2021/04/09 14:35:20;;;;;;;18.17;11.73;;;;;;;;;;5019712;28;20035;-58
2021/04/09 14:37:46;;;;;;;5.85;4.90;;;;;;;;;;5036201;28;20108;-59
2021/04/09 14:40:13;;;;;;;2.10;1.30;;;;;;;;;;5019620;28;20025;-59
2021/04/09 14:42:40;;;;;;;1.67;1.00;;;;;;;;;;5052780;28;20120;-59
2021/04/09 14:45:10;;;;;;;1.65;0.85;;;;;;;;;;5053290;28;20021;-59
2021/04/09 14:47:36;;;;;;;3.15;1.42;;;;;;;;;;5053321;28;20057;-59
2021/04/09 14:50:04;;;;;;;1.88;1.10;;;;;;;;;;5053865;28;20043;-59
2021/04/09 14:52:30;;;;;;;1.55;0.75;;;;;;;;;;5035907;28;20467;-59
2021/04/09 14:54:56;;;;;;;2.30;1.27;;;;;;;;;;5036327;28;20072;-59
2021/04/09 14:57:22;;;;;;;2.30;0.88;;;;;;;;;;5053441;28;20021;-59
2021/04/09 14:59:48;;;;;;;3.67;1.60;;;;;;;;;;5053404;28;20025;-59
2021/04/09 15:02:14;;;;;;;4.57;1.30;;;;;;;;;;5054160;28;20465;-59
2021/04/09 15:04:43;;;;;;;3.50;1.08;;;;;;;;;;5053305;28;20033;-59
2021/04/09 15:07:09;;;;;;;2.15;1.00;;;;;;;;;;5052977;28;20017;-59
2021/04/09 15:09:35;;;;;;;4.15;0.85;;;;;;;;;;5053447;28;20021;-59
2021/04/09 15:12:02;;;;;;;1.67;0.93;;;;;;;;;;5036004;28;20743;-59
2021/04/09 15:14:27;;;;;;;2.38;1.40;;;;;;;;;;5018983;28;20056;-59
2021/04/09 15:16:57;;;;;;;2.00;0.95;;;;;;;;;;5035887;28;20025;-59
2021/04/09 15:19:23;;;;;;;2.35;1.15;;;;;;;;;;5035243;28;20344;-59
2021/04/09 15:21:49;;;;;;;3.00;1.38;;;;;;;;;;5053057;28;20021;-58
2021/04/09 15:24:15;;;;;;;2.92;1.17;;;;;;;;;;5053564;28;20025;-58
2021/04/09 15:26:41;;;;;;;1.98;0.95;;;;;;;;;;5053562;28;20071;-58
2021/04/09 15:29:07;;;;;;;3.10;0.93;;;;;;;;;;5035241;28;20112;-58
2021/04/09 15:31:34;;;;;;;1.50;0.75;;;;;;;;;;5040081;28;20359;-59
2021/04/09 15:34:00;;;;;;;1.88;0.95;;;;;;;;;;5060081;28;20029;-58
2021/04/09 15:36:27;;;;;;;2.45;1.08;;;;;;;;;;5059779;28;20087;-59
2021/04/09 15:38:56;;;;;;;3.30;1.30;;;;;;;;;;5059713;28;20048;-58
2021/04/09 15:41:22;;;;;;;2.83;1.17;;;;;;;;;;5059754;28;20467;-58
2021/04/09 15:43:48;;;;;;;3.92;0.80;;;;;;;;;;5041793;28;20040;-59
2021/04/09 15:46:14;;;;;;;1.58;0.88;;;;;;;;;;5059513;28;20195;-58
2021/04/09 15:48:41;;;;;;;3.53;1.50;;;;;;;;;;5059710;28;20025;-58
2021/04/09 15:51:10;;;;;;;3.63;1.50;;;;;;;;;;5041549;28;20044;-59
2021/04/09 15:53:40;;;;;;;2.30;1.23;;;;;;;;;;5059299;28;20039;-58
2021/04/09 15:56:07;;;;;;;1.70;0.80;;;;;;;;;;5059573;28;20025;-58
2021/04/09 15:58:35;;;;;;;2.38;0.88;;;;;;;;;;5059551;28;20048;-59
2021/04/09 16:01:02;;;;;;;1.55;0.85;;;;;;;;;;5059410;28;20086;-59
2021/04/09 16:03:28;;;;;;;4.00;1.48;;;;;;;;;;5041951;28;20053;-59
2021/04/09 16:05:54;;;;;;;2.15;0.77;;;;;;;;;;5041321;28;20029;-59
2021/04/09 16:08:23;;;;;;;1.98;1.08;;;;;;;;;;5041383;28;20033;-59
2021/04/09 16:10:49;;;;;;;2.85;0.98;;;;;;;;;;5041664;28;20032;-59
2021/04/09 16:13:20;;;;;;;2.65;0.68;;;;;;;;;;5059836;28;20456;-59
2021/04/09 16:15:46;;;;;;;2.58;1.33;;;;;;;;;;5059398;28;20104;-59
2021/04/09 16:18:12;;;;;;;1.63;0.85;;;;;;;;;;5041068;28;20470;-59
2021/04/09 16:20:39;;;;;;;3.90;1.30;;;;;;;;;;5041964;28;20036;-59
2021/04/09 16:23:05;;;;;;;1.83;0.93;;;;;;;;;;5059400;28;20040;-59
2021/04/09 16:25:31;;;;;;;1.48;0.80;;;;;;;;;;5041574;28;20197;-59
2021/04/09 16:27:57;;;;;;;2.22;0.90;;;;;;;;;;5024799;28;20347;-59
2021/04/09 16:30:26;;;;;;;3.42;1.55;;;;;;;;;;5041507;28;20115;-59
2021/04/09 16:32:52;;;;;;;2.40;1.40;;;;;;;;;;5058825;28;20036;-59
2021/04/09 16:35:19;;;;;;;2.38;1.08;;;;;;;;;;5041481;28;20025;-60
2021/04/09 16:37:45;;;;;;;1.83;0.88;;;;;;;;;;5058926;28;20029;-59
2021/04/09 16:40:14;;;;;;;2.25;1.17;;;;;;;;;;5041503;28;20056;-60
2021/04/09 16:42:41;;;;;;;3.30;1.20;;;;;;;;;;5057114;28;20028;-59
2021/04/09 16:45:08;;;;;;;2.03;0.90;;;;;;;;;;5055772;28;20035;-60
2021/04/09 16:47:34;;;;;;;1.70;0.95;;;;;;;;;;5056380;28;20028;-59
2021/04/09 16:50:02;;;;;;;3.60;1.20;;;;;;;;;;5055338;28;20112;-59
2021/04/09 16:52:28;;;;;;;2.60;1.02;;;;;;;;;;5056178;28;20082;-59
2021/04/09 16:54:54;;;;;;;3.25;0.80;;;;;;;;;;5055948;28;20443;-60
2021/04/09 16:57:24;;;;;;;2.22;1.40;;;;;;;;;;5037900;28;20033;-59
2021/04/09 16:59:50;;;;;;;1.92;1.45;;;;;;;;;;5037860;28;20470;-60
2021/04/09 17:02:16;;;;;;;3.47;1.23;;;;;;;;;;5055505;28;20036;-59
2021/04/09 17:04:45;;;;;;;4.25;0.80;;;;;;;;;;5038435;28;20029;-60
2021/04/09 17:07:11;;;;;;;2.17;1.05;;;;;;;;;;5038259;28;20017;-60
2021/04/09 17:09:37;;;;;;;3.45;1.17;;;;;;;;;;5020727;28;20029;-60
2021/04/09 17:12:03;;;;;;;2.28;1.33;;;;;;;;;;5037214;28;20120;-60
2021/04/09 17:14:29;;;;;;;3.95;1.30;;;;;;;;;;5020708;28;20036;-60
2021/04/09 17:16:56;;;;;;;2.10;0.82;;;;;;;;;;5037149;28;20055;-60
2021/04/09 17:19:22;;;;;;;1.15;0.60;;;;;;;;;;5054868;28;20390;-60
2021/04/09 17:21:49;;;;;;;2.65;1.10;;;;;;;;;;5037337;28;20029;-60